LPPT/LIS METAR and TAF weather

Enter ICAO airport designator
Station Type Date Time Source
LPPT METAR 2019/04/25 02:00 UTC NOAA

LPPT 250200Z 24011KT 9999 -RA FEW025 SCT045 12/09 Q1010


Station Type Date Time Source
LPPT Decoded METAR 2019/04/25 02:00 UTC NOAA

Lisboa / Portela, Portugal (LPPT) 38-46N 009-08W 123M
Apr 24, 2019 - 10:00 PM EDT / 2019.04.25 0200 UTC
Wind: from the WSW (240 degrees) at 13 MPH (11 KT):0
Visibility: greater than 7 mile(s):0
Sky conditions: partly cloudy
Weather: light rain
Temperature: 53 F (12 C)
Dew Point: 48 F (9 C)
Relative Humidity: 81%
Pressure (altimeter): 29.83 in. Hg (1010 hPa)
ob: LPPT 250200Z 24011KT 9999 -RA FEW025 SCT045 12/09 Q1010
cycle: 2

Station Type Date Time Source
LPPT TAF 2019/04/24 18:18 UTC NOAA

TAF LPPT 241700Z 2418/2524 24015KT 9999 SCT018 SCT030
TEMPO 2418/2420 25020G32KT 5000 -RA SCT008 BKN015
BECMG 2420/2423 27012KT FEW020
TEMPO 2508/2516 28017G32KT 8000 SHRA BKN020 FEW025CB
BECMG 2516/2519 30008KT

Example: see airport list